Map

Track Data

SID SEASON NUMBER BASIN SUBBASIN NAME ISO_TIME NATURE LAT LON WMO_WIND WMO_PRES WMO_AGENCY TRACK_TYPE DIST2LAND LANDFALL IFLAG USA_AGENCY USA_ATCF_ID USA_LAT USA_LON USA_RECORD USA_STATUS USA_WIND USA_PRES USA_SSHS USA_R34_NE USA_R34_SE USA_R34_SW USA_R34_NW USA_R50_NE USA_R50_SE USA_R50_SW USA_R50_NW USA_R64_NE USA_R64_SE USA_R64_SW USA_R64_NW USA_POCI USA_ROCI USA_RMW USA_EYE TOKYO_LAT TOKYO_LON TOKYO_GRADE TOKYO_WIND TOKYO_PRES TOKYO_R50_DIR TOKYO_R50_LONG TOKYO_R50_SHORT TOKYO_R30_DIR TOKYO_R30_LONG TOKYO_R30_SHORT TOKYO_LAND CMA_LAT CMA_LON CMA_CAT CMA_WIND CMA_PRES HKO_LAT HKO_LON HKO_CAT HKO_WIND HKO_PRES NEWDELHI_LAT NEWDELHI_LON NEWDELHI_GRADE NEWDELHI_WIND NEWDELHI_PRES NEWDELHI_CI NEWDELHI_DP NEWDELHI_POCI REUNION_LAT REUNION_LON REUNION_TYPE REUNION_WIND REUNION_PRES REUNION_TNUM REUNION_CI REUNION_RMW REUNION_R34_NE REUNION_R34_SE REUNION_R34_SW REUNION_R34_NW REUNION_R50_NE REUNION_R50_SE REUNION_R50_SW REUNION_R50_NW REUNION_R64_NE REUNION_R64_SE REUNION_R64_SW REUNION_R64_NW BOM_LAT BOM_LON BOM_TYPE BOM_WIND BOM_PRES BOM_TNUM BOM_CI BOM_RMW BOM_R34_NE BOM_R34_SE BOM_R34_SW BOM_R34_NW BOM_R50_NE BOM_R50_SE BOM_R50_SW BOM_R50_NW BOM_R64_NE BOM_R64_SE BOM_R64_SW BOM_R64_NW BOM_ROCI BOM_POCI BOM_EYE BOM_POS_METHOD BOM_PRES_METHOD NADI_LAT NADI_LON NADI_CAT NADI_WIND NADI_PRES WELLINGTON_LAT WELLINGTON_LON WELLINGTON_WIND WELLINGTON_PRES DS824_LAT DS824_LON DS824_STAGE DS824_WIND DS824_PRES TD9636_LAT TD9636_LON TD9636_STAGE TD9636_WIND TD9636_PRES TD9635_LAT TD9635_LON TD9635_WIND TD9635_PRES TD9635_ROCI NEUMANN_LAT NEUMANN_LON NEUMANN_CLASS NEUMANN_WIND NEUMANN_PRES MLC_LAT MLC_LON MLC_CLASS MLC_WIND MLC_PRES USA_GUST BOM_GUST BOM_GUST_PER REUNION_GUST REUNION_GUST_PER USA_SEAHGT USA_SEARAD_NE USA_SEARAD_SE USA_SEARAD_SW USA_SEARAD_NW STORM_SPEED STORM_DIR
1925100N14094 1925 16 NI BB NOT_NAMED 1925-04-10 00:00:00 TS 13.6000 94.2000 main 247 247 _________O____ -1 13.6000 94.2000 TC 34 2 285
1925100N14094 1925 16 NI BB NOT_NAMED 1925-04-10 03:00:00 TS 13.6267 94.0917 main 248 238 _________PO___ -1 13.6400 94.0375 TC 36 13.6000 94.2000 2 2 291
1925100N14094 1925 16 NI BB NOT_NAMED 1925-04-10 06:00:00 TS 13.6856 93.9706 main 238 230 _________OP___ -1 13.7000 93.9000 TC 39 13.6641 94.0766 2 3 302
1925100N14094 1925 16 NI BB NOT_NAMED 1925-04-10 09:00:00 TS 13.7668 93.8654 main 230 230 _________PP___ -1 13.7925 93.8000 TC 42 13.7325 93.9525 2 3 310
1925100N14094 1925 16 NI BB NOT_NAMED 1925-04-10 12:00:00 TS 13.8549 93.7636 main 222 222 _________OP___ -1 13.9000 93.7000 TC 45 13.8097 93.8272 2 3 307
1925100N14094 1925 16 NI BB NOT_NAMED 1925-04-10 15:00:00 TS 13.9463 93.6250 main 229 219 _________PO___ -1 13.9925 93.5500 TC 45 13.9000 93.7000 3 3 306
1925100N14094 1925 16 NI BB NOT_NAMED 1925-04-10 18:00:00 TS 14.0533 93.4855 main 213 208 _________OP___ -1 14.1000 93.4000 TC 45 14.0066 93.5709 3 3 314
1925100N14094 1925 16 NI BB NOT_NAMED 1925-04-10 21:00:00 TS 14.1850 93.3675 main 208 205 _________PP___ -1 14.2425 93.2925 TC 45 14.1275 93.4425 3 4 321
1925100N14094 1925 16 NI BB NOT_NAMED 1925-04-11 00:00:00 TS 14.3298 93.2589 main 205 194 _________OP___ -1 14.4000 93.2000 TC 45 14.2597 93.3178 3 4 324
1925100N14094 1925 16 NI BB NOT_NAMED 1925-04-11 03:00:00 TS 14.4750 93.1500 main 194 193 _________PO___ -1 14.5500 93.1000 TC 45 14.4000 93.2000 3 4 324
1925100N14094 1925 16 NI BB NOT_NAMED 1925-04-11 06:00:00 TS 14.6214 93.0403 main 201 193 _________OP___ -1 14.7000 93.0000 TC 45 14.5428 93.0806 3 4 324
1925100N14094 1925 16 NI BB NOT_NAMED 1925-04-11 09:00:00 TS 14.7713 92.9313 main 193 185 _________PP___ -1 14.8500 92.8925 TC 45 14.6925 92.9700 3 4 327
1925100N14094 1925 16 NI BB NOT_NAMED 1925-04-11 12:00:00 TS 14.9230 92.8372 main 194 180 _________OP___ -1 15.0000 92.8000 TC 45 14.8459 92.8744 3 3 332
1925100N14094 1925 16 NI BB NOT_NAMED 1925-04-11 15:00:00 TS 15.0750 92.7675 main 180 180 _________PO___ -1 15.1500 92.7350 TC 45 15.0000 92.8000 3 3 337
1925100N14094 1925 16 NI BB NOT_NAMED 1925-04-11 18:00:00 TS 15.2168 92.7085 main 183 178 _________OP___ -1 15.3000 92.7000 TC 45 15.1337 92.7170 3 3 340
1925100N14094 1925 16 NI BB NOT_NAMED 1925-04-11 21:00:00 TS 15.3487 92.6652 main 178 170 _________PP___ -1 15.4275 92.6701 TC 45 15.2699 92.6603 3 3 353
1925100N14094 1925 16 NI BB NOT_NAMED 1925-04-12 00:00:00 TS 15.5106 92.6742 main 170 163 _________OP___ -1 15.6000 92.7000 TC 45 15.4211 92.6484 3 4 13
1925100N14094 1925 16 NI BB NOT_NAMED 1925-04-12 03:00:00 TS 15.7462 92.7562 main 153 139 _________PO___ -1 15.8925 92.8125 TC 45 15.6000 92.7000 3 6 24
1925100N14094 1925 16 NI BB NOT_NAMED 1925-04-12 06:00:00 TS 16.0228 92.9073 main 139 119 _________OP___ -1 16.2000 93.0000 TC 45 15.8456 92.8147 3 6 33
1925100N14094 1925 16 NI BB NOT_NAMED 1925-04-12 09:00:00 TS 16.2687 93.1111 main 122 106 _________PP___ -1 16.4225 93.2275 TC 45 16.1149 92.9946 3 6 43
1925100N14094 1925 16 NI BB NOT_NAMED 1925-04-12 12:00:00 TS 16.4884 93.3636 main 95 75 _________OP___ -1 16.6000 93.5000 TC 45 16.3768 93.2272 3 7 51
1925100N14094 1925 16 NI BB NOT_NAMED 1925-04-12 15:00:00 TS 16.6862 93.6425 main 77 53 _________PO___ -1 16.7725 93.7850 TC 41 16.6000 93.5000 3 6 59
1925100N14094 1925 16 NI BB NOT_NAMED 1925-04-12 18:00:00 TS 16.8209 93.9292 main 53 21 _________OP___ -1 16.9000 94.1000 TC 37 16.7615 93.8011 3 6 69
1925100N14094 1925 16 NI BB NOT_NAMED 1925-04-12 21:00:00 TS 16.9093 94.2506 main 10 0 _________PP___ -1 16.9676 94.4425 TC 33 16.8705 94.1227 3 6 77
1925100N14094 1925 16 NI BB NOT_NAMED 1925-04-13 00:00:00 TS 16.9628 94.5720 main 0 0 _________OP___ -1 17.0000 94.8000 TC 30 16.9442 94.4579 3 5 80
1925100N14094 1925 16 NI BB NOT_NAMED 1925-04-13 03:00:00 NR 17.0000 94.8000 main 0 __________O___ -1 TC 17.0000 94.8000 1 4 80

About IBTrACS Database

This database is a web-friendly format of International Best Track Archive for Climate Stewardship (IBTrACS), a global best track data archive curated by NOAA dating back to 1842.

Updated: 2021-10-08